createdAt,value
2022-12-07T00:00:44.357Z,5.16
2022-12-07T00:01:44.771Z,5.08
2022-12-07T00:02:47.590Z,4.98
2022-12-07T00:03:44.595Z,4.97
2022-12-07T00:04:44.487Z,5.04
2022-12-07T00:05:44.375Z,5
2022-12-07T00:06:44.370Z,5.07
2022-12-07T00:07:47.545Z,5
2022-12-07T00:08:44.419Z,5.04
2022-12-07T00:09:44.458Z,5.01
2022-12-07T00:10:44.403Z,4.89
2022-12-07T00:11:44.374Z,5.01
2022-12-07T00:12:44.406Z,4.94
2022-12-07T00:13:44.375Z,5.12
2022-12-07T00:14:44.429Z,4.94
2022-12-07T00:15:44.388Z,5
2022-12-07T00:16:44.703Z,4.95
2022-12-07T00:17:44.392Z,4.9
2022-12-07T00:18:47.500Z,4.95
2022-12-07T00:19:44.413Z,4.89
2022-12-07T00:20:44.401Z,4.97
2022-12-07T00:21:44.380Z,5.01
2022-12-07T00:22:44.405Z,5
2022-12-07T00:23:44.394Z,5.01
2022-12-07T00:24:44.430Z,4.92
2022-12-07T00:25:44.507Z,4.98
2022-12-07T00:26:44.464Z,4.87
2022-12-07T00:27:44.414Z,4.98
2022-12-07T00:28:44.421Z,5.04
2022-12-07T00:29:47.595Z,4.92
2022-12-07T00:30:44.427Z,4.97
2022-12-07T00:31:45.103Z,5.01
2022-12-07T00:32:44.413Z,4.9
2022-12-07T00:33:44.448Z,5.01
2022-12-07T00:34:44.453Z,4.92
2022-12-07T00:35:44.412Z,4.87
2022-12-07T00:36:44.502Z,5
2022-12-07T00:37:44.414Z,4.92
2022-12-07T00:38:44.456Z,4.98
2022-12-07T00:39:44.445Z,5.02
2022-12-07T00:40:47.436Z,4.92
2022-12-07T00:41:44.440Z,5.01
2022-12-07T00:42:44.428Z,4.95
2022-12-07T00:43:44.450Z,4.89
2022-12-07T00:44:44.468Z,4.75
2022-12-07T00:45:44.704Z,4.84
2022-12-07T00:46:44.441Z,4.82
2022-12-07T00:47:44.432Z,4.7
2022-12-07T00:48:44.429Z,4.82
2022-12-07T00:49:44.447Z,4.83
2022-12-07T00:50:44.456Z,4.79
2022-12-07T00:51:47.440Z,4.94
2022-12-07T00:52:44.437Z,4.92
2022-12-07T00:53:46.646Z,4.84
2022-12-07T00:54:44.504Z,4.9
2022-12-07T00:55:44.457Z,4.84
2022-12-07T00:56:44.447Z,4.84
2022-12-07T00:57:44.477Z,4.86
2022-12-07T00:58:44.468Z,4.92
2022-12-07T00:59:44.470Z,4.83
2022-12-07T01:00:44.468Z,4.74
2022-12-07T01:01:44.813Z,4.82
2022-12-07T01:02:47.722Z,4.86
2022-12-07T01:03:44.845Z,4.87
2022-12-07T01:04:44.527Z,4.75
2022-12-07T01:05:45.485Z,4.82
2022-12-07T01:06:46.561Z,4.86
2022-12-07T01:07:44.599Z,4.86
2022-12-07T01:08:44.463Z,4.78
2022-12-07T01:09:44.524Z,4.86
2022-12-07T01:10:44.460Z,4.89
2022-12-07T01:11:44.478Z,4.82
2022-12-07T01:12:44.462Z,4.84
2022-12-07T01:13:47.547Z,4.97
2022-12-07T01:14:44.500Z,4.84
2022-12-07T01:15:44.491Z,4.74
2022-12-07T01:16:44.753Z,4.79
2022-12-07T01:17:44.494Z,4.83
2022-12-07T01:18:44.480Z,4.82
2022-12-07T01:19:44.519Z,4.83
2022-12-07T01:20:44.495Z,4.98
2022-12-07T01:21:44.479Z,4.94
2022-12-07T01:22:44.481Z,4.89
2022-12-07T01:23:44.488Z,4.89
2022-12-07T01:24:47.746Z,4.92
2022-12-07T01:25:44.509Z,4.95
2022-12-07T01:26:44.509Z,4.95
2022-12-07T01:27:44.517Z,4.87
2022-12-07T01:28:44.525Z,4.92
2022-12-07T01:29:44.566Z,4.86
2022-12-07T01:30:44.753Z,4.89
2022-12-07T01:31:44.495Z,4.75
2022-12-07T01:32:44.547Z,4.78
2022-12-07T01:33:44.533Z,4.82
2022-12-07T01:34:44.513Z,4.78
2022-12-07T01:35:44.530Z,4.83
2022-12-07T01:36:44.558Z,4.84
2022-12-07T01:37:44.518Z,4.84
2022-12-07T01:38:44.544Z,4.71
2022-12-07T01:39:44.529Z,4.86
2022-12-07T01:40:47.557Z,4.82
2022-12-07T01:41:44.691Z,4.79
2022-12-07T01:42:44.517Z,4.78
2022-12-07T01:43:44.535Z,4.78
2022-12-07T01:44:44.532Z,4.94
2022-12-07T01:45:44.984Z,4.86
2022-12-07T01:46:44.671Z,4.89
2022-12-07T01:47:44.517Z,4.82
2022-12-07T01:48:44.556Z,4.87
2022-12-07T01:49:44.586Z,4.79
2022-12-07T01:50:44.543Z,4.87
2022-12-07T01:51:44.551Z,4.71
2022-12-07T01:52:44.536Z,4.79
2022-12-07T01:53:44.534Z,4.82
2022-12-07T01:54:44.571Z,4.86
2022-12-07T01:55:44.547Z,4.82
2022-12-07T01:56:47.571Z,4.87
2022-12-07T01:57:44.533Z,4.84
2022-12-07T01:58:44.564Z,4.76
2022-12-07T01:59:44.584Z,4.86
2022-12-07T02:00:44.561Z,4.92
2022-12-07T02:01:44.856Z,4.95
2022-12-07T02:02:44.838Z,5
2022-12-07T02:03:44.542Z,4.87
2022-12-07T02:04:44.639Z,4.89
2022-12-07T02:05:44.559Z,4.84
2022-12-07T02:06:44.568Z,4.86
2022-12-07T02:07:47.848Z,4.87
2022-12-07T02:08:44.621Z,4.92
2022-12-07T02:09:44.601Z,4.78
2022-12-07T02:10:44.550Z,4.86
2022-12-07T02:11:44.574Z,4.78
2022-12-07T02:12:47.571Z,4.86
2022-12-07T02:13:44.579Z,4.79
2022-12-07T02:14:44.590Z,4.76
2022-12-07T02:15:44.767Z,4.84
2022-12-07T02:16:44.576Z,4.75
2022-12-07T02:17:44.604Z,4.83
2022-12-07T02:18:47.667Z,4.78
2022-12-07T02:19:44.605Z,4.79
2022-12-07T02:20:44.611Z,4.78
2022-12-07T02:21:44.609Z,4.83
2022-12-07T02:22:44.575Z,4.92
2022-12-07T02:23:47.691Z,4.79
2022-12-07T02:24:44.619Z,4.89
2022-12-07T02:25:44.601Z,4.84
2022-12-07T02:26:44.603Z,4.84
2022-12-07T02:27:44.584Z,4.67
2022-12-07T02:28:44.591Z,4.64
2022-12-07T02:29:47.484Z,4.68
2022-12-07T02:30:44.767Z,4.58
2022-12-07T02:31:44.600Z,4.66
2022-12-07T02:32:44.815Z,4.63
2022-12-07T02:33:44.668Z,4.63
2022-12-07T02:34:47.753Z,4.75
2022-12-07T02:35:44.596Z,4.82
2022-12-07T02:36:44.628Z,4.64
2022-12-07T02:37:44.608Z,4.66
2022-12-07T02:38:44.606Z,4.74
2022-12-07T02:39:44.610Z,4.67
2022-12-07T02:40:47.666Z,4.79
2022-12-07T02:41:44.602Z,4.66
2022-12-07T02:42:44.627Z,4.79
2022-12-07T02:43:44.627Z,4.61
2022-12-07T02:44:44.606Z,4.66
2022-12-07T02:45:47.630Z,4.76
2022-12-07T02:46:44.941Z,4.66
2022-12-07T02:47:44.614Z,4.64
2022-12-07T02:48:44.656Z,4.6
2022-12-07T02:49:44.636Z,4.67
2022-12-07T02:50:44.646Z,4.7
2022-12-07T02:51:44.623Z,4.64
2022-12-07T02:52:44.717Z,4.63
2022-12-07T02:53:44.652Z,4.58
2022-12-07T02:54:44.623Z,4.57
2022-12-07T02:55:44.637Z,4.6
2022-12-07T02:56:47.680Z,4.63
2022-12-07T02:57:44.633Z,4.63
2022-12-07T02:58:45.668Z,4.58
2022-12-07T02:59:44.632Z,4.63
2022-12-07T03:00:44.674Z,4.68
2022-12-07T03:01:44.921Z,4.56
2022-12-07T03:02:44.933Z,4.58
2022-12-07T03:03:44.628Z,4.63
2022-12-07T03:04:44.651Z,4.6
2022-12-07T03:05:44.674Z,4.58
2022-12-07T03:06:44.635Z,4.61
2022-12-07T03:07:47.934Z,4.6
2022-12-07T03:08:44.640Z,4.5
2022-12-07T03:09:44.732Z,4.49
2022-12-07T03:10:47.635Z,4.49
2022-12-07T03:11:44.659Z,4.39
2022-12-07T03:12:44.662Z,4.42
2022-12-07T03:13:44.655Z,4.34
2022-12-07T03:14:44.683Z,4.43
2022-12-07T03:15:44.872Z,4.39
2022-12-07T03:16:44.687Z,4.4
2022-12-07T03:17:44.659Z,4.38
2022-12-07T03:18:47.738Z,4.4
2022-12-07T03:19:44.697Z,4.43
2022-12-07T03:20:44.671Z,4.39
2022-12-07T03:21:44.694Z,4.36
2022-12-07T03:22:44.683Z,4.39
2022-12-07T03:23:44.695Z,4.31
2022-12-07T03:24:44.684Z,4.39
2022-12-07T03:25:44.705Z,4.25
2022-12-07T03:26:44.677Z,4.36
2022-12-07T03:27:44.671Z,4.34
2022-12-07T03:28:44.697Z,4.36
2022-12-07T03:29:47.440Z,4.32
2022-12-07T03:30:44.988Z,4.34
2022-12-07T03:31:45.038Z,4.32
2022-12-07T03:32:44.692Z,4.31
2022-12-07T03:33:44.694Z,4.32
2022-12-07T03:34:44.717Z,4.34
2022-12-07T03:35:44.715Z,4.34
2022-12-07T03:36:44.694Z,4.34
2022-12-07T03:37:44.725Z,4.28
2022-12-07T03:38:44.707Z,4.28
2022-12-07T03:39:44.737Z,4.32
2022-12-07T03:40:47.747Z,4.38
2022-12-07T03:41:49.806Z,4.39
2022-12-07T03:42:44.718Z,4.36
2022-12-07T03:43:44.719Z,4.27
2022-12-07T03:44:44.694Z,4.25
2022-12-07T03:45:44.727Z,4.22
2022-12-07T03:46:44.986Z,4.2
2022-12-07T03:47:44.704Z,4.16
2022-12-07T03:48:44.721Z,4.24
2022-12-07T03:49:44.727Z,4.18
2022-12-07T03:50:44.750Z,4.24
2022-12-07T03:51:47.625Z,4.16
2022-12-07T03:52:44.731Z,4.25
2022-12-07T03:53:44.736Z,4.18
2022-12-07T03:54:44.721Z,4.21
2022-12-07T03:55:44.788Z,4.14
2022-12-07T03:56:44.769Z,4.24
2022-12-07T03:57:44.733Z,4.16
2022-12-07T03:58:44.724Z,4.13
2022-12-07T03:59:44.739Z,4.18
2022-12-07T04:00:44.764Z,4.2
2022-12-07T04:01:44.911Z,4.13
2022-12-07T04:02:45.129Z,4.14
2022-12-07T04:03:44.757Z,4.09
2022-12-07T04:04:44.741Z,4.1
2022-12-07T04:05:44.763Z,4.06
2022-12-07T04:06:44.730Z,4.09
2022-12-07T04:07:45.264Z,4.13
2022-12-07T04:08:44.748Z,4.02
2022-12-07T04:09:44.782Z,4.03
2022-12-07T04:10:44.796Z,3.94
2022-12-07T04:11:44.765Z,3.82
2022-12-07T04:12:44.771Z,3.78
2022-12-07T04:13:44.754Z,3.73
2022-12-07T04:14:47.721Z,3.76
2022-12-07T04:15:44.934Z,3.86
2022-12-07T04:16:49.336Z,3.78
2022-12-07T04:17:44.755Z,3.89
2022-12-07T04:18:44.755Z,3.77
2022-12-07T04:19:44.763Z,3.86
2022-12-07T04:20:44.795Z,3.88
2022-12-07T04:21:44.778Z,3.95
2022-12-07T04:22:45.803Z,3.95
2022-12-07T04:23:47.815Z,3.84
2022-12-07T04:24:44.777Z,3.86
2022-12-07T04:25:44.830Z,3.82
2022-12-07T04:26:44.764Z,3.88
2022-12-07T04:27:44.794Z,3.94
2022-12-07T04:28:44.818Z,3.88
2022-12-07T04:29:44.773Z,4
2022-12-07T04:30:44.801Z,3.94
2022-12-07T04:31:45.160Z,3.88
2022-12-07T04:32:44.830Z,3.81
2022-12-07T04:33:44.790Z,3.86
2022-12-07T04:34:51.465Z,3.81
2022-12-07T04:35:44.798Z,3.94
2022-12-07T04:36:44.807Z,3.91
2022-12-07T04:37:44.795Z,3.85
2022-12-07T04:38:44.793Z,3.89
2022-12-07T04:39:47.646Z,3.82
2022-12-07T04:40:44.835Z,3.88
2022-12-07T04:41:44.868Z,3.86
2022-12-07T04:42:44.819Z,3.84
2022-12-07T04:43:44.824Z,3.92
2022-12-07T04:44:44.834Z,3.86
2022-12-07T04:45:47.588Z,3.85
2022-12-07T04:46:45.096Z,3.85
2022-12-07T04:47:44.795Z,4
2022-12-07T04:48:44.806Z,3.96
2022-12-07T04:49:44.812Z,4.06
2022-12-07T04:50:50.773Z,3.95
2022-12-07T04:51:44.833Z,3.94
2022-12-07T04:52:44.806Z,4.12
2022-12-07T04:53:44.803Z,4.06
2022-12-07T04:54:44.809Z,4.06
2022-12-07T04:55:44.846Z,4.16
2022-12-07T04:56:47.830Z,4.07
2022-12-07T04:57:44.866Z,4.12
2022-12-07T04:58:44.835Z,4.02
2022-12-07T04:59:50.037Z,4
2022-12-07T05:00:44.979Z,4
2022-12-07T05:01:48.114Z,4.02
2022-12-07T05:02:44.836Z,4.03
2022-12-07T05:03:44.832Z,4
2022-12-07T05:04:44.835Z,3.96
2022-12-07T05:05:44.888Z,4.1
2022-12-07T05:06:44.846Z,4.07
2022-12-07T05:07:44.984Z,4.1
2022-12-07T05:08:44.835Z,4.02
2022-12-07T05:09:44.846Z,3.99
2022-12-07T05:10:44.866Z,4.06
2022-12-07T05:11:45.033Z,4.07
2022-12-07T05:12:48.039Z,4.12
2022-12-07T05:13:44.847Z,4.07
2022-12-07T05:14:44.905Z,4.09
2022-12-07T05:15:44.923Z,4.04
2022-12-07T05:16:45.228Z,4.18
2022-12-07T05:17:44.850Z,4.16
2022-12-07T05:18:44.835Z,4.1
2022-12-07T05:19:44.873Z,4.06
2022-12-07T05:20:47.389Z,4
2022-12-07T05:21:44.857Z,4.12
2022-12-07T05:22:44.842Z,4.09
2022-12-07T05:23:47.846Z,4.21
2022-12-07T05:24:44.859Z,4.2
2022-12-07T05:25:44.944Z,4.04
2022-12-07T05:26:44.892Z,4.14
2022-12-07T05:27:44.866Z,4.2
2022-12-07T05:28:44.926Z,4.09
2022-12-07T05:29:44.883Z,4.18
2022-12-07T05:30:44.874Z,4.12
2022-12-07T05:31:45.253Z,4.14
2022-12-07T05:32:44.911Z,4.18
2022-12-07T05:33:44.880Z,4.21
2022-12-07T05:34:47.901Z,4.18
2022-12-07T05:35:44.898Z,4.22
2022-12-07T05:36:44.883Z,4.18
2022-12-07T05:37:44.891Z,4.21
2022-12-07T05:38:44.878Z,4.24
2022-12-07T05:39:44.725Z,4.24
2022-12-07T05:40:44.892Z,4.2
2022-12-07T05:41:44.912Z,4.34
2022-12-07T05:42:44.887Z,4.18
2022-12-07T05:43:44.957Z,4.14
2022-12-07T05:44:44.934Z,4.22
2022-12-07T05:45:48.255Z,4.14
2022-12-07T05:46:44.907Z,4.3
2022-12-07T05:47:44.941Z,4.18
2022-12-07T05:48:44.900Z,4.2
2022-12-07T05:49:44.908Z,4.24
2022-12-07T05:50:44.904Z,4.27
2022-12-07T05:51:44.948Z,4.25
2022-12-07T05:52:44.889Z,4.27
2022-12-07T05:53:44.915Z,4.24
2022-12-07T05:54:44.915Z,4.25
2022-12-07T05:55:44.909Z,4.34
2022-12-07T05:56:47.815Z,4.28
2022-12-07T05:57:44.923Z,4.22
2022-12-07T05:58:44.899Z,4.13
2022-12-07T05:59:44.898Z,4.12
2022-12-07T06:00:51.191Z,4.18
2022-12-07T06:01:45.100Z,4.2
2022-12-07T06:02:45.367Z,4.21
2022-12-07T06:03:44.977Z,4.27
2022-12-07T06:04:44.932Z,4.27
2022-12-07T06:05:45.108Z,4.24
2022-12-07T06:06:45.326Z,4.25
2022-12-07T06:07:48.090Z,4.31
2022-12-07T06:08:44.772Z,4.3
2022-12-07T06:09:44.943Z,4.28
2022-12-07T06:10:44.946Z,4.34
2022-12-07T06:11:44.993Z,4.31
2022-12-07T06:12:44.941Z,4.3
2022-12-07T06:13:51.564Z,4.3
2022-12-07T06:14:44.927Z,4.22
2022-12-07T06:15:44.928Z,4.21
2022-12-07T06:16:45.422Z,4.18
2022-12-07T06:17:44.973Z,4.24
2022-12-07T06:18:47.998Z,4.24
2022-12-07T06:19:44.955Z,4.36
2022-12-07T06:20:44.970Z,4.2
2022-12-07T06:21:44.975Z,4.21
2022-12-07T06:22:44.948Z,4.1
2022-12-07T06:23:44.949Z,4.14
2022-12-07T06:24:44.967Z,4.1
2022-12-07T06:25:44.872Z,4.22
2022-12-07T06:26:44.984Z,4.07
2022-12-07T06:27:44.952Z,4.12
2022-12-07T06:28:44.958Z,4.31
2022-12-07T06:29:44.965Z,4.16
2022-12-07T06:30:44.986Z,4.18
2022-12-07T06:31:45.260Z,4.18
2022-12-07T06:32:44.840Z,4.22
2022-12-07T06:33:44.975Z,4.28
2022-12-07T06:34:47.835Z,4.22
2022-12-07T06:35:47.977Z,4.27
2022-12-07T06:36:45.005Z,4.3
2022-12-07T06:37:44.982Z,4.18
2022-12-07T06:38:44.972Z,4.21
2022-12-07T06:39:44.964Z,4.24
2022-12-07T06:40:44.678Z,4.09
2022-12-07T06:41:44.904Z,4.27
2022-12-07T06:42:44.974Z,4.21
2022-12-07T06:43:45.078Z,4.22
2022-12-07T06:44:44.996Z,4.36
2022-12-07T06:45:45.184Z,4.16
2022-12-07T06:46:45.042Z,4.22
2022-12-07T06:47:49.556Z,4.24
2022-12-07T06:48:45.012Z,4.3
2022-12-07T06:49:47.991Z,4.42
2022-12-07T06:50:54.886Z,4.38
2022-12-07T06:51:45.052Z,4.34
2022-12-07T06:52:44.984Z,4.25
2022-12-07T06:53:44.997Z,4.38
2022-12-07T06:54:45.007Z,4.34
2022-12-07T06:55:45.017Z,4.32
2022-12-07T06:56:45.570Z,4.32
2022-12-07T06:57:45.018Z,4.13
2022-12-07T06:58:44.881Z,4.21
2022-12-07T06:59:45.016Z,4.3
2022-12-07T07:00:45.271Z,4.28
2022-12-07T07:01:48.305Z,4.31
2022-12-07T07:02:45.287Z,4.3
2022-12-07T07:03:45.026Z,4.21
2022-12-07T07:04:45.033Z,4.21
2022-12-07T07:05:45.051Z,4.25
2022-12-07T07:06:45.761Z,4.24
2022-12-07T07:08:26.502Z,4.31
2022-12-07T07:08:45.330Z,4.38
2022-12-07T07:09:45.056Z,4.3
2022-12-07T07:10:45.042Z,4.3
2022-12-07T07:11:45.064Z,4.34
2022-12-07T07:12:50.860Z,4.28
2022-12-07T07:13:45.041Z,4.27
2022-12-07T07:14:45.042Z,4.36
2022-12-07T07:15:45.040Z,4.38
2022-12-07T07:16:45.317Z,4.31
2022-12-07T07:17:48.153Z,4.36
2022-12-07T07:18:45.058Z,4.32
2022-12-07T07:19:45.063Z,4.18
2022-12-07T07:20:45.096Z,4.25
2022-12-07T07:21:45.082Z,4.21
2022-12-07T07:22:45.093Z,4.3
2022-12-07T07:23:48.131Z,4.22
2022-12-07T07:24:45.060Z,4.25
2022-12-07T07:25:45.065Z,4.27
2022-12-07T07:26:45.079Z,4.31
2022-12-07T07:27:45.093Z,4.25
2022-12-07T07:28:48.168Z,4.25
2022-12-07T07:29:45.063Z,4.36
2022-12-07T07:30:45.319Z,4.21
2022-12-07T07:31:45.083Z,4.3
2022-12-07T07:32:45.075Z,4.3
2022-12-07T07:33:45.092Z,4.32
2022-12-07T07:34:45.105Z,4.43
2022-12-07T07:35:45.071Z,4.34
2022-12-07T07:36:45.140Z,4.3
2022-12-07T07:37:45.055Z,4.36
2022-12-07T07:38:45.120Z,4.34
2022-12-07T07:39:48.103Z,4.38
2022-12-07T07:40:45.088Z,4.42
2022-12-07T07:41:45.113Z,4.46
2022-12-07T07:42:45.079Z,4.43
2022-12-07T07:43:45.072Z,4.46
2022-12-07T07:44:45.126Z,4.58
2022-12-07T07:45:45.378Z,4.38
2022-12-07T07:46:45.243Z,4.45
2022-12-07T07:47:45.090Z,4.42
2022-12-07T07:48:45.081Z,4.52
2022-12-07T07:49:52.156Z,4.46
2022-12-07T07:50:48.110Z,4.57
2022-12-07T07:51:45.119Z,4.53
2022-12-07T07:52:45.128Z,4.64
2022-12-07T07:53:45.097Z,4.53
2022-12-07T07:54:45.408Z,4.57
2022-12-07T07:55:45.091Z,4.58
2022-12-07T07:56:45.182Z,4.57
2022-12-07T07:57:48.479Z,4.64
2022-12-07T07:58:45.149Z,4.67
2022-12-07T07:59:45.122Z,4.6
2022-12-07T08:00:45.150Z,4.56
2022-12-07T08:01:48.415Z,4.63
2022-12-07T08:02:45.143Z,4.68
2022-12-07T08:03:45.120Z,4.67
2022-12-07T08:04:45.467Z,4.68
2022-12-07T08:05:45.115Z,4.56
2022-12-07T08:06:48.128Z,4.66
2022-12-07T08:07:45.439Z,4.5
2022-12-07T08:08:45.150Z,4.67
2022-12-07T08:09:45.180Z,4.6
2022-12-07T08:10:45.189Z,4.78
2022-12-07T08:11:45.664Z,4.75
2022-12-07T08:12:48.186Z,4.71
2022-12-07T08:13:45.141Z,4.74
2022-12-07T08:14:45.143Z,4.63
2022-12-07T08:15:45.373Z,4.7
2022-12-07T08:16:45.183Z,4.67
2022-12-07T08:17:45.171Z,4.68
2022-12-07T08:18:45.139Z,4.74
2022-12-07T08:19:45.148Z,4.74
2022-12-07T08:20:45.135Z,4.84
2022-12-07T08:21:45.156Z,4.74
2022-12-07T08:22:45.146Z,4.68
2022-12-07T08:23:48.158Z,4.84
2022-12-07T08:24:45.191Z,4.83
2022-12-07T08:25:45.179Z,4.79
2022-12-07T08:26:45.458Z,4.82
2022-12-07T08:27:45.372Z,4.75
2022-12-07T08:28:45.225Z,4.95
2022-12-07T08:29:45.170Z,4.9
2022-12-07T08:30:45.427Z,4.75
2022-12-07T08:31:45.588Z,4.9
2022-12-07T08:32:45.159Z,4.83
2022-12-07T08:33:45.168Z,4.76
2022-12-07T08:34:48.197Z,4.78
2022-12-07T08:35:45.159Z,4.75
2022-12-07T08:36:45.200Z,4.79
2022-12-07T08:37:45.152Z,4.84
2022-12-07T08:39:45.172Z,4.97
2022-12-07T08:40:45.199Z,4.86
2022-12-07T08:41:46.153Z,4.75
2022-12-07T08:42:45.228Z,4.84
2022-12-07T08:43:45.168Z,4.84
2022-12-07T08:44:45.193Z,4.78
2022-12-07T08:45:45.418Z,4.84
2022-12-07T08:46:45.425Z,4.79
2022-12-07T08:47:45.179Z,5.7
2022-12-07T08:48:45.185Z,5.15
2022-12-07T08:49:45.191Z,5.05
2022-12-07T08:50:52.532Z,5.05
2022-12-07T08:51:45.224Z,5.16
2022-12-07T08:52:45.198Z,5.02
2022-12-07T08:53:45.179Z,4.94
2022-12-07T08:54:45.205Z,5.04
2022-12-07T08:55:45.202Z,5.05
2022-12-07T08:56:45.261Z,5.04
2022-12-07T08:57:45.223Z,5.05
2022-12-07T08:58:45.230Z,5.07
2022-12-07T08:59:45.195Z,5.13
2022-12-07T09:00:45.199Z,5.08
2022-12-07T09:01:45.797Z,4.94
2022-12-07T09:02:45.199Z,4.82
2022-12-07T09:03:45.202Z,4.83
2022-12-07T09:04:45.209Z,4.92
2022-12-07T09:05:46.528Z,4.89
2022-12-07T09:06:45.746Z,4.79
2022-12-07T09:07:45.442Z,4.89
2022-12-07T09:08:45.229Z,5
2022-12-07T09:09:46.236Z,5.01
2022-12-07T09:10:45.241Z,4.98
2022-12-07T09:11:45.273Z,4.94
2022-12-07T09:12:48.370Z,4.86
2022-12-07T09:13:45.229Z,4.9
2022-12-07T09:14:45.272Z,4.92
2022-12-07T09:15:45.463Z,5.04
2022-12-07T09:16:45.393Z,5.04
2022-12-07T09:17:48.331Z,5.16
2022-12-07T09:18:45.235Z,5.13
2022-12-07T09:19:45.234Z,5.2
2022-12-07T09:20:45.312Z,5.23
2022-12-07T09:21:45.261Z,5.19
2022-12-07T09:22:45.247Z,5.04
2022-12-07T09:23:48.237Z,5.12
2022-12-07T09:24:45.247Z,5.2
2022-12-07T09:25:45.229Z,5.02
2022-12-07T09:26:45.263Z,5.12
2022-12-07T09:27:45.253Z,5.19
2022-12-07T09:28:48.435Z,5.07
2022-12-07T09:29:45.242Z,5.13
2022-12-07T09:31:28.455Z,4.94
2022-12-07T09:31:45.426Z,5.07
2022-12-07T09:32:45.249Z,5.04
2022-12-07T09:33:48.549Z,5.2
2022-12-07T09:34:45.684Z,5.02
2022-12-07T09:35:45.244Z,5.16
2022-12-07T09:36:45.302Z,5.15
2022-12-07T09:37:45.259Z,5.13
2022-12-07T09:38:45.273Z,5.16
2022-12-07T09:39:53.020Z,5.12
2022-12-07T09:40:45.443Z,5.12
2022-12-07T09:41:45.296Z,5.19
2022-12-07T09:42:45.744Z,5.18
2022-12-07T09:43:45.282Z,5.07
2022-12-07T09:44:48.044Z,5.19
2022-12-07T09:45:54.578Z,5.08
2022-12-07T09:46:45.616Z,5.22
2022-12-07T09:47:45.323Z,5.16
2022-12-07T09:48:45.294Z,5.19
2022-12-07T09:49:45.269Z,5.29
2022-12-07T09:50:48.330Z,5.23
2022-12-07T09:51:45.335Z,5.16
2022-12-07T09:52:45.293Z,5.29
2022-12-07T09:53:45.301Z,5.13
2022-12-07T09:54:45.296Z,5.2
2022-12-07T09:55:48.298Z,5.23
2022-12-07T09:56:45.344Z,5.22
2022-12-07T09:57:45.285Z,5.36
2022-12-07T09:58:45.303Z,5.16
2022-12-07T09:59:45.308Z,5.34
2022-12-07T10:00:45.370Z,5.2
2022-12-07T10:01:49.306Z,5.33
2022-12-07T10:02:45.392Z,5.29
2022-12-07T10:03:45.307Z,5.41
2022-12-07T10:04:45.587Z,5.51
2022-12-07T10:05:45.305Z,5.49
2022-12-07T10:06:48.429Z,5.51
2022-12-07T10:07:45.501Z,5.54
2022-12-07T10:08:45.343Z,5.47
2022-12-07T10:09:45.301Z,5.52
2022-12-07T10:10:45.326Z,5.55
2022-12-07T10:11:45.300Z,5.44
2022-12-07T10:12:45.690Z,5.64
2022-12-07T10:13:45.531Z,5.51
2022-12-07T10:15:15.326Z,5.67
2022-12-07T10:15:45.722Z,5.64
2022-12-07T10:16:45.662Z,5.59
2022-12-07T10:17:48.852Z,5.59
2022-12-07T10:18:45.335Z,5.62
2022-12-07T10:19:45.327Z,5.58
2022-12-07T10:20:45.322Z,5.62
2022-12-07T10:21:45.317Z,5.67
2022-12-07T10:22:45.347Z,5.51
2022-12-07T10:23:45.341Z,5.55
2022-12-07T10:24:45.330Z,5.46
2022-12-07T10:25:45.382Z,5.59
2022-12-07T10:26:48.375Z,5.46
2022-12-07T10:27:45.366Z,5.58
2022-12-07T10:28:47.773Z,5.52
2022-12-07T10:29:45.347Z,5.62
2022-12-07T10:30:46.393Z,5.47
2022-12-07T10:31:45.893Z,5.55
2022-12-07T10:32:45.387Z,5.61
2022-12-07T10:33:45.412Z,5.69
2022-12-07T10:35:04.660Z,5.69
2022-12-07T10:35:45.408Z,5.67
2022-12-07T10:36:45.365Z,5.64
2022-12-07T10:37:45.388Z,5.7
2022-12-07T10:38:45.366Z,5.72
2022-12-07T10:39:48.179Z,5.73
2022-12-07T10:40:50.920Z,5.59
2022-12-07T10:41:45.362Z,5.62
2022-12-07T10:42:48.351Z,5.61
2022-12-07T10:43:45.368Z,5.67
2022-12-07T10:44:45.565Z,5.7
2022-12-07T10:46:11.563Z,5.67
2022-12-07T10:46:45.590Z,5.8
2022-12-07T10:47:45.397Z,5.77
2022-12-07T10:48:45.398Z,5.59
2022-12-07T10:49:45.450Z,5.69
2022-12-07T10:50:48.536Z,5.64
2022-12-07T10:51:45.386Z,5.59
2022-12-07T10:52:45.400Z,5.64
2022-12-07T10:53:45.391Z,5.72
2022-12-07T10:54:45.411Z,5.59
2022-12-07T10:55:45.412Z,5.65
2022-12-07T10:56:51.083Z,5.67
2022-12-07T10:57:45.411Z,5.73
2022-12-07T10:58:45.396Z,5.67
2022-12-07T10:59:45.396Z,5.72
2022-12-07T11:00:45.600Z,5.79
2022-12-07T11:01:48.564Z,5.61
2022-12-07T11:02:45.615Z,5.7
2022-12-07T11:03:45.397Z,5.7
2022-12-07T11:04:45.430Z,5.65
2022-12-07T11:05:46.459Z,5.65
2022-12-07T11:06:45.411Z,5.64
2022-12-07T11:07:45.675Z,5.67
2022-12-07T11:08:45.386Z,5.67
2022-12-07T11:10:13.374Z,5.72
2022-12-07T11:10:45.500Z,5.72
2022-12-07T11:11:45.414Z,5.67
2022-12-07T11:12:51.273Z,5.72
2022-12-07T11:13:45.404Z,5.67
2022-12-07T11:14:45.427Z,5.79
2022-12-07T11:15:45.434Z,5.8
2022-12-07T11:16:45.895Z,5.79
2022-12-07T11:17:45.463Z,5.8
2022-12-07T11:18:45.465Z,5.81
2022-12-07T11:19:45.436Z,5.92
2022-12-07T11:20:45.451Z,5.91
2022-12-07T11:21:45.505Z,5.79
2022-12-07T11:22:45.488Z,5.84
2022-12-07T11:23:45.430Z,5.76
2022-12-07T11:24:48.437Z,5.84
2022-12-07T11:25:45.419Z,5.77
2022-12-07T11:26:45.450Z,5.77
2022-12-07T11:27:45.501Z,5.76
2022-12-07T11:28:45.420Z,5.81
2022-12-07T11:29:45.430Z,5.87
2022-12-07T11:30:45.453Z,5.81
2022-12-07T11:31:45.676Z,5.8
2022-12-07T11:32:45.447Z,5.69
2022-12-07T11:33:45.465Z,5.79
2022-12-07T11:34:45.447Z,5.77
2022-12-07T11:35:45.419Z,5.88
2022-12-07T11:36:45.513Z,5.91
2022-12-07T11:37:46.770Z,5.88
2022-12-07T11:38:45.480Z,5.94
2022-12-07T11:39:45.455Z,5.92
2022-12-07T11:40:45.465Z,5.97
2022-12-07T11:41:45.452Z,6.02
2022-12-07T11:42:45.467Z,5.87
2022-12-07T11:43:45.453Z,5.92
2022-12-07T11:44:48.474Z,5.88
2022-12-07T11:45:45.452Z,5.97
2022-12-07T11:46:45.669Z,5.79
2022-12-07T11:47:45.501Z,5.81
2022-12-07T11:48:46.503Z,5.79
2022-12-07T11:49:45.471Z,5.9
2022-12-07T11:50:45.481Z,5.9
2022-12-07T11:51:45.474Z,5.91
2022-12-07T11:52:45.500Z,5.9
2022-12-07T11:53:45.616Z,5.92
2022-12-07T11:54:45.494Z,5.83
2022-12-07T11:55:48.589Z,5.92
2022-12-07T11:56:45.469Z,5.92
2022-12-07T11:57:45.522Z,5.92
2022-12-07T11:58:45.483Z,5.92
2022-12-07T11:59:45.505Z,5.94
2022-12-07T12:00:45.550Z,5.84
2022-12-07T12:01:45.765Z,5.79
2022-12-07T12:02:45.786Z,5.83
2022-12-07T12:03:53.205Z,5.81
2022-12-07T12:04:45.484Z,5.9
2022-12-07T12:05:45.557Z,5.9
2022-12-07T12:06:48.675Z,5.84
2022-12-07T12:09:59.743Z,5.87
2022-12-07T12:10:58.628Z,5.84
2022-12-07T12:14:34.628Z,5.97
2022-12-07T12:14:53.191Z,5.91
2022-12-07T12:15:51.484Z,5.9
2022-12-07T12:16:51.675Z,5.97
2022-12-07T12:17:54.526Z,5.84
2022-12-07T12:18:51.570Z,5.84
2022-12-07T12:19:51.501Z,5.83
2022-12-07T12:20:51.489Z,5.83
2022-12-07T12:21:58.049Z,5.8
2022-12-07T12:22:51.504Z,5.84
2022-12-07T12:23:54.502Z,5.87
2022-12-07T12:24:51.512Z,5.92
2022-12-07T12:25:51.791Z,5.87
2022-12-07T12:26:51.593Z,5.87
2022-12-07T12:27:51.504Z,5.92
2022-12-07T12:28:55.390Z,5.79
2022-12-07T12:29:51.542Z,5.94
2022-12-07T12:30:51.510Z,5.88
2022-12-07T12:31:51.710Z,5.76
2022-12-07T12:32:51.531Z,5.8
2022-12-07T12:33:51.368Z,5.84
2022-12-07T12:34:58.486Z,5.99
2022-12-07T12:35:51.516Z,5.91
2022-12-07T12:36:51.764Z,5.76
2022-12-07T12:37:51.528Z,5.84
2022-12-07T12:38:51.589Z,5.84
2022-12-07T12:39:54.887Z,5.81
2022-12-07T12:40:55.699Z,5.7
2022-12-07T12:41:51.670Z,5.72
2022-12-07T12:42:51.600Z,5.72
2022-12-07T12:43:51.509Z,5.77
2022-12-07T12:44:51.519Z,5.77
2022-12-07T12:45:51.811Z,5.87
2022-12-07T12:46:54.692Z,5.88
2022-12-07T12:47:51.501Z,5.76
2022-12-07T12:48:51.502Z,5.77
2022-12-07T12:49:51.551Z,5.8
2022-12-07T12:50:54.627Z,5.81
2022-12-07T12:51:51.547Z,5.77
2022-12-07T12:52:55.162Z,5.88
2022-12-07T12:53:51.551Z,5.84
2022-12-07T12:54:51.567Z,5.92
2022-12-07T12:55:51.595Z,5.88
2022-12-07T12:56:51.609Z,5.94
2022-12-07T12:57:58.484Z,5.81
2022-12-07T12:58:51.631Z,5.79
2022-12-07T12:59:51.566Z,5.74
2022-12-07T13:00:51.726Z,5.7
2022-12-07T13:01:54.555Z,5.8
2022-12-07T13:02:51.713Z,5.87
2022-12-07T13:03:51.549Z,5.88
2022-12-07T13:04:51.574Z,5.79
2022-12-07T13:05:51.552Z,5.74
2022-12-07T13:06:51.554Z,5.77
2022-12-07T13:07:51.748Z,5.87
2022-12-07T13:08:51.787Z,5.79
2022-12-07T13:09:51.694Z,5.8
2022-12-07T13:10:51.566Z,5.77
2022-12-07T13:11:51.618Z,5.8
2022-12-07T13:12:54.614Z,5.88
2022-12-07T13:13:51.600Z,5.87
2022-12-07T13:14:51.574Z,5.9
2022-12-07T13:15:51.592Z,5.79
2022-12-07T13:16:51.932Z,5.77
2022-12-07T13:17:51.569Z,5.79
2022-12-07T13:18:51.554Z,5.74
2022-12-07T13:19:51.611Z,5.84
2022-12-07T13:20:51.580Z,5.81
2022-12-07T13:21:51.599Z,5.74
2022-12-07T13:22:51.562Z,5.74
2022-12-07T13:23:54.699Z,5.76
2022-12-07T13:24:51.594Z,5.8
2022-12-07T13:25:51.581Z,5.83
2022-12-07T13:26:51.606Z,5.83
2022-12-07T13:27:51.564Z,5.83